Airfield :
LOGIN :

Register | Disclaimer

   EN    FR    IT 

 










Legend :    VFR   Marginal VFR   IFR   Intensive IFR   Very Intensive IFR
Visi :
Ceiling :
>= 8 km
>= 3000ft
5 to 8 km
1000 to 3000 ft
1500m to 5 km
500 to 1000 ft
800 to 1500m
200 to 500 ft
< 800m
< 200 ft
Symbols :   Thunderstorms  Fog  Heavy snow  Heavy precipitations  Wind > 20 kt
SIGMETs :     Misc.  Thunderstorms  Icing  Turbulence  Mountain Waves  Volcanic Ashes






- Airport Elevation : 194 ft


EBCV - Chièvres

CURRENT METAR :
  • 291025Z AUTO 18012KT 3400 DZ FEW004/// BKN006/// BKN009/// 07/07 Q1010 YLO

EXPIRED METARs :
  • 290955Z AUTO 18013KT 2300 -DZ FEW006/// BKN008/// OVC100/// 07/06 Q1010 YLO
  • 290925Z AUTO 18012KT 2800 -DZ SCT009/// BKN012/// BKN110/// 07/06 Q1010 YLO
  • 290906Z AUTO 18013KT 3600 DZ BKN010/// BKN110/// 07/06 Q1010 YLO
  • 290855Z AUTO 18012KT 5000 BKN010/// OVC110/// 07/06 Q1010 GRN
  • 290825Z AUTO 18012KT 9999 FEW008/// BKN010/// BKN110/// 07/06 Q1011 GRN
  • 290755Z AUTO 18012KT 8000 BR SCT009/// BKN011/// BKN033/// 07/06 Q1011 GRN
  • 290743Z AUTO 18013KT 6000 -DZ FEW008/// BKN010/// BKN055/// 07/06 Q1011 GRN
  • 290725Z AUTO 18013KT 3000 DZ SCT008/// BKN010/// OVC100/// 07/06 Q1011 YLO
  • 290703Z AUTO 18011KT 2300 -RA FEW009/// BKN011/// OVC100/// 07/06 Q1011 YLO
  • 290655Z AUTO 18011KT 7000 -RA BKN010/// OVC100/// 07/06 Q1011 GRN
  • 290625Z AUTO 18012KT 4300 -DZ SCT009/// BKN011/// 07/06 Q1012 GRN
  • 290616Z AUTO 18013KT 3600 BR FEW009/// BKN011/// OVC100/// 07/05 Q1012 YLO
  • 290555Z AUTO 17012KT 7000 BKN010/// BKN025/// OVC060/// 07/05 Q1012 GRN

TAF TAF EBCV
Valid from the 29 at 10:00 until the 29 at 19:00 UTC


290841Z 2910/2919 18011KT 9999 BKN010 OVC015
TEMPO 2910/2919 4000 -RA -RADZ BKN006 OVC008
TEMPO 2910/2919 6000 -RA SCT008 BKN010 BY EBWM



MET'MAP, your aeronautical weather chart ! - Copyright ORBIFLY December 2007 - Disclaimer

ORBIFLY MET'MAP TEAM :

Programming & Development : Alexandra Zaïnal
Original concept : Baudouin d'Aumeries
Technical & hardware support : Manuel Goepfert
Assistance : Marc-Olivier Méhu




SOURCES & CREDITS :

   NOAA